Flight Track Log - Related Links

Times and Time Zones

All times are in EDT time to prevent confusion due to time zone crossing. See the SWA2975 flight status page for this flight to view local times or setup timezone preferences in your user account.


Time Position Orientation Groundspeed Altitude Reporting Facility
EDT Latitude Longitude Course Direction KTS MPH feet Rate Location/Type
Thu 11:07:29 PM 41.7970 -87.7670 317° Northwest 152 175 1,700  Level FlightAware ADS-B
Thu 11:07:47 PM 41.8110 -87.7680 357° North 196 226 2,200 1,241 Climbing FlightAware ADS-B
Thu 11:07:58 PM 41.8200 -87.7590 37° Northeast 228 262 2,300 1,714 Climbing FlightAware ADS-B
Thu 11:08:15 PM 41.8250 -87.7350 74° East 252 290 3,000 2,000 Climbing FlightAware ADS-B
Thu 11:08:43 PM 41.8240 -87.6920 92° East 255 293 3,800 1,800 Climbing FlightAware ADS-B
Thu 11:08:55 PM 41.8240 -87.6720 90° East 270 311 4,200 2,000 Climbing FlightAware ADS-B
Thu 11:09:25 PM 41.8220 -87.6170 93° East 290 334 5,200 1,017 Climbing FlightAware ADS-B
Thu 11:09:54 PM 41.8210 -87.5670 92° East 289 333 5,200  Level FlightAware ADS-B
Thu 11:10:13 PM 41.8200 -87.5330 92° East 287 330 5,200 340 Level FlightAware ADS-B
Thu 11:10:47 PM 41.8180 -87.4750 93° East 289 333 5,500 1,174 Climbing FlightAware ADS-B
Thu 11:10:59 PM 41.8170 -87.4520 93° East 289 333 6,100 3,450 Climbing FlightAware ADS-B
Thu 11:11:27 PM 41.8150 -87.4020 93° East 289 333 7,800 3,346 Climbing FlightAware ADS-B
Thu 11:11:51 PM 41.8150 -87.3580 90° East 299 344 9,000 2,959 Climbing FlightAware ADS-B
Thu 11:12:40 PM 41.8160 -87.2630 89° East 321 369 11,400 2,703 Climbing FlightAware ADS-B
Thu 11:13:22 PM 41.8250 -87.1790 82° East 331 381 13,100 2,458 Climbing FlightAware ADS-B
Thu 11:14:03 PM 41.8350 -87.0930 81° East 345 397 14,800 2,500 Climbing FlightAware ADS-B
Thu 11:14:46 PM 41.8470 -87.0010 80° East 357 411 16,600 1,735 Climbing FlightAware ADS-B
Thu 11:15:26 PM 41.8570 -86.9080 82° East 405 466 17,200 1,481 Climbing FlightAware ADS-B
Thu 11:16:07 PM 41.8640 -86.8030 85° East 424 488 18,600 2,023 Climbing FlightAware ADS-B
Thu 11:16:52 PM 41.8730 -86.6810 84° East 440 506 20,100 2,047 Climbing FlightAware ADS-B
Thu 11:17:32 PM 41.8810 -86.5710 84° East 450 518 21,500 2,096 Climbing FlightAware ADS-B
Thu 11:18:15 PM 41.8900 -86.4530 84° East 457 526 23,000 2,024 Climbing FlightAware ADS-B
Thu 11:18:55 PM 41.8980 -86.3390 85° East 464 534 24,300 1,829 Climbing FlightAware ADS-B
Thu 11:19:37 PM 41.9070 -86.2170 84° East 474 545 25,500 1,571 Climbing FlightAware ADS-B
Thu 11:20:19 PM 41.9150 -86.0970 85° East 481 554 26,500 1,425 Climbing FlightAware ADS-B
Thu 11:20:57 PM 41.9230 -85.9820 85° East 488 562 27,400 1,286 Climbing FlightAware ADS-B
Thu 11:21:43 PM 41.9330 -85.8380 85° East 497 572 28,300 1,253 Climbing FlightAware ADS-B
Thu 11:22:28 PM 41.9420 -85.7060 85° East 502 578 29,300 1,200 Climbing FlightAware ADS-B
Thu 11:23:08 PM 41.9500 -85.5770 85° East 511 588 30,000 988 Climbing FlightAware ADS-B
Thu 11:23:53 PM 41.9600 -85.4310 85° East 518 596 30,700 1,084 Climbing FlightAware ADS-B
Thu 11:24:31 PM 41.9670 -85.3130 85° East 522 601 31,500 1,200 Climbing FlightAware ADS-B
Thu 11:25:08 PM 41.9750 -85.1930 85° East 525 604 32,200 824 Climbing FlightAware ADS-B
Thu 11:26:13 PM 41.9870 -84.9970 85° East 526 605 32,900 736 Climbing FlightAware ADS-B
Thu 11:26:54 PM 41.9950 -84.8680 85° East 525 604 33,500 2,074 Climbing FlightAware ADS-B
Thu 11:27:34 PM 42.0050 -84.7210 85° East 500 575 35,700 1,786 Climbing FlightAware ADS-B
Thu 11:28:18 PM 42.0210 -84.5870 81° East 501 577 36,000 225 Climbing FlightAware ADS-B
Thu 11:28:54 PM 42.0340 -84.4770 81° East 501 577 36,000  Level FlightAware ADS-B
Thu 11:29:37 PM 42.0490 -84.3430 81° East 496 571 36,000  Level FlightAware ADS-B
Thu 11:30:17 PM 42.0630 -84.2220 81° East 492 566 36,000  Level FlightAware ADS-B
Thu 11:31:01 PM 42.0770 -84.0940 82° East 492 566 36,000  Level FlightAware ADS-B
Thu 11:31:46 PM 42.0920 -83.9560 82° East 493 567 36,000  Level FlightAware ADS-B
Thu 11:32:28 PM 42.1060 -83.8280 82° East 485 558 36,000  Level FlightAware ADS-B
Thu 11:33:10 PM 42.1190 -83.7030 82° East 483 556 36,000  Level FlightAware ADS-B
Thu 11:33:54 PM 42.1330 -83.5720 82° East 482 555 36,000 279 Level FlightAware ADS-B
Thu 11:34:36 PM 42.1460 -83.4480 82° East 482 555 36,400 732 Climbing FlightAware ADS-B
Thu 11:35:16 PM 42.1590 -83.3280 82° East 481 554 37,000 450 Climbing FlightAware ADS-B
Thu 11:35:56 PM 42.1720 -83.2080 82° East 484 557 37,000  Level FlightAware ADS-B
Thu 11:36:39 PM 42.1840 -83.0830 83° East 486 559 37,000  Level FlightAware ADS-B
Thu 11:37:24 PM 42.1980 -82.9500 82° East 490 564 37,000  Level FlightAware ADS-B
Thu 11:38:05 PM 42.2100 -82.8230 83° East 492 566 37,000  Level FlightAware ADS-B
Thu 11:38:47 PM 42.2230 -82.6960 82° East 491 565 37,000  Level FlightAware ADS-B
Thu 11:39:31 PM 42.2360 -82.5620 82° East 488 562 37,000  Level FlightAware ADS-B
Thu 11:40:07 PM 42.2460 -82.4540 83° East 486 559 37,000  Level FlightAware ADS-B
Thu 11:40:53 PM 42.2590 -82.3170 83° East 489 563 37,000  Level FlightAware ADS-B
Thu 11:41:33 PM 42.2710 -82.1930 83° East 489 563 37,000  Level FlightAware ADS-B
Thu 11:42:18 PM 42.2840 -82.0550 83° East 488 562 37,000  Level FlightAware ADS-B
Thu 11:42:58 PM 42.2950 -81.9360 83° East 489 563 37,000  Level FlightAware ADS-B
Thu 11:43:41 PM 42.3070 -81.8050 83° East 488 562 37,000  Level FlightAware ADS-B
Thu 11:44:23 PM 42.3180 -81.6820 83° East 488 562 37,000  Level FlightAware ADS-B
Thu 11:45:17 PM 42.3320 -81.5180 83° East 488 562 37,000  Level FlightAware ADS-B
Thu 11:46:00 PM 42.3440 -81.3880 83° East 489 563 37,000  Level FlightAware ADS-B
Thu 11:46:43 PM 42.3550 -81.2580 83° East 490 564 37,000  Level FlightAware ADS-B
Thu 11:47:25 PM 42.3660 -81.1320 83° East 491 565 37,000  Level FlightAware ADS-B
Thu 11:48:08 PM 42.3780 -80.9950 83° East 491 565 37,000  Level FlightAware ADS-B
Thu 11:48:52 PM 42.3890 -80.8600 84° East 490 564 37,000  Level FlightAware ADS-B
Thu 11:49:29 PM 42.3970 -80.7500 84° East 490 564 37,000  Level FlightAware ADS-B
Thu 11:50:11 PM 42.4070 -80.6230 84° East 483 556 37,000  Level FlightAware ADS-B
Thu 11:50:49 PM 42.4160 -80.5120 84° East 475 547 37,000  Level FlightAware ADS-B
Thu 11:51:40 PM 42.4280 -80.3600 84° East 474 545 37,000  Level FlightAware ADS-B
Thu 11:52:18 PM 42.4370 -80.2500 84° East 473 544 37,000  Level FlightAware ADS-B
Thu 11:53:00 PM 42.4460 -80.1250 84° East 469 540 37,000  Level FlightAware ADS-B
Thu 11:53:42 PM 42.4550 -80.0050 84° East 467 537 37,000  Level FlightAware ADS-B
Thu 11:54:22 PM 42.4640 -79.8870 84° East 466 536 37,000  Level FlightAware ADS-B
Thu 11:55:08 PM 42.4740 -79.7530 84° East 466 536 37,000  Level FlightAware ADS-B
Thu 11:55:48 PM 42.4820 -79.6390 85° East 465 535 37,000  Level FlightAware ADS-B
Thu 11:56:32 PM 42.4910 -79.5140 84° East 466 536 37,000  Level FlightAware ADS-B
Thu 11:57:13 PM 42.5000 -79.3920 84° East 472 543 37,000  Level FlightAware ADS-B
Thu 11:57:56 PM 42.5080 -79.2700 85° East 473 544 37,000  Level FlightAware ADS-B
Thu 11:58:38 PM 42.5160 -79.1400 85° East 470 541 37,000  Level FlightAware ADS-B
Thu 11:59:20 PM 42.5240 -79.0180 85° East 469 540 37,000  Level FlightAware ADS-B
Fri 12:00:00 AM 42.5320 -78.9010 85° East 469 540 37,000  Level FlightAware ADS-B
Fri 12:00:42 AM 42.5400 -78.7770 85° East 470 541 37,000  Level FlightAware ADS-B
Fri 12:01:28 AM 42.5480 -78.6430 85° East 474 545 37,000  Level FlightAware ADS-B
Fri 12:02:06 AM 42.5550 -78.5290 85° East 474 545 37,000  Level FlightAware ADS-B
Fri 12:02:52 AM 42.5630 -78.3950 85° East 474 545 37,000  Level FlightAware ADS-B
Fri 12:03:32 AM 42.5700 -78.2770 85° East 474 545 37,000  Level FlightAware ADS-B
Fri 12:04:14 AM 42.5780 -78.1510 85° East 474 545 37,000 -450 Level FlightAware ADS-B
Fri 12:04:52 AM 42.5840 -78.0430 86° East 464 534 36,400 -929 Descending FlightAware ADS-B
Fri 12:05:38 AM 42.5920 -77.9130 85° East 448 516 35,700 -977 Descending FlightAware ADS-B
Fri 12:06:18 AM 42.5980 -77.8000 86° East 441 507 35,000 -1,024 Descending FlightAware ADS-B
Fri 12:07:00 AM 42.6040 -77.6860 86° East 445 512 34,300 -988 Descending FlightAware ADS-B
Fri 12:07:43 AM 42.6100 -77.5620 86° East 455 524 33,600 -988 Descending FlightAware ADS-B
Fri 12:08:25 AM 42.6170 -77.4390 86° East 463 533 32,900 -907 Descending FlightAware ADS-B
Fri 12:09:09 AM 42.6230 -77.3140 86° East 463 533 32,300 -929 Descending FlightAware ADS-B
Fri 12:09:49 AM 42.6290 -77.1970 86° East 465 535 31,600 -1,000 Descending FlightAware ADS-B
Fri 12:10:33 AM 42.6360 -77.0680 86° East 463 533 30,900 -1,000 Descending FlightAware ADS-B
Fri 12:11:07 AM 42.6400 -76.9710 87° East 463 533 30,300 -1,059 Descending FlightAware ADS-B
Fri 12:11:41 AM 42.6450 -76.8720 86° East 460 529 29,700 -1,026 Descending FlightAware ADS-B
Fri 12:12:23 AM 42.6500 -76.7520 87° East 441 507 29,000 -512 Descending FlightAware ADS-B
Fri 12:13:03 AM 42.6550 -76.6450 86° East 433 498 29,000 -500 Level FlightAware ADS-B
Fri 12:13:35 AM 42.6590 -76.5590 86° East 429 494 28,400 -1,083 Descending FlightAware ADS-B
Fri 12:14:15 AM 42.6640 -76.4510 86° East 426 490 27,700 -1,024 Descending FlightAware ADS-B
Fri 12:14:57 AM 42.6690 -76.3380 87° East 428 493 27,000 -969 Descending FlightAware ADS-B
Fri 12:18:35 AM 42.6900 -75.7970 87° East 407 468 23,500 -1,000 Descending FlightAware ADS-B
Fri 12:19:57 AM 42.6990 -75.5620 87° East 393 452 22,000 -1,041 Descending FlightAware ADS-B
Fri 12:22:37 AM 42.7110 -75.1930 87° East 366 421 19,300 -1,049 Descending FlightAware ADS-B
Fri 12:23:23 AM 42.7150 -75.0810 87° East 349 402 18,400 -1,465 Descending FlightAware ADS-B
Fri 12:24:03 AM 42.7170 -74.9940 88° East 343 395 17,200 -1,692 Descending FlightAware ADS-B
Fri 12:24:41 AM 42.7200 -74.9130 87° East 336 387 16,200 -1,714 Descending FlightAware ADS-B
Fri 12:25:27 AM 42.7230 -74.8170 88° East 334 384 14,800 -1,200 Descending FlightAware ADS-B
Fri 12:26:06 AM 42.7250 -74.7460 88° East 334 384 14,500 -212 Descending FlightAware ADS-B
Fri 12:26:52 AM 42.7280 -74.6640 87° East 334 384 14,500  Level FlightAware ADS-B
Fri 12:27:29 AM 42.7310 -74.5980 86° East 334 384 14,500 -1,747 Level FlightAware ADS-B
Fri 12:32:56 AM 42.8930 -74.0690 67° East 256 295 3,900 -1,863 Descending FlightAware ADS-B
Fri 12:33:20 AM 42.9050 -74.0420 59° Northeast 249 287 3,600 -667 Descending FlightAware ADS-B
Fri 12:33:50 AM 42.9200 -73.9980 65° Northeast 219 252 3,300 -393 Descending FlightAware ADS-B
Fri 12:34:21 AM 42.9230 -73.9600 84° East 185 213 3,200 -113 Descending FlightAware ADS-B
Fri 12:34:43 AM 42.9260 -73.9370 80° East 163 188 3,200 -577 Level FlightAware ADS-B
Fri 12:35:13 AM 42.9290 -73.9070 82° East 157 181 2,700 -900 Descending FlightAware ADS-B
Fri 12:35:43 AM 42.9310 -73.8780 85° East 144 166 2,300 -333 Descending FlightAware ADS-B
Fri 12:36:25 AM 42.9250 -73.8470 105° East 146 168 2,300  Level FlightAware ADS-B
Fri 12:37:08 AM 42.9010 -73.8300 153° Southeast 149 171 2,300 -203 Level FlightAware ADS-B
Fri 12:38:23 AM 42.8464 -73.8136 153° Southeast 161 185 1,900 -529 Descending Boston Center
Fri 12:39:24 AM 42.8006 -73.8097 176° South 156 180 1,100 -793 Descending Boston Center
Fri 12:40:24 AM 42.7589 -73.8058 176° South 156 180 300 -800 Descending Boston Center
Fri 12:42:00 AM 42.7491 -73.8020 North  Level Estimated
Fri 12:49:00 AM 42.7491 -73.8020 North  Level Estimated
Fri 12:50:00 AM 42.7491 -73.8020 North  Level Estimated

Login

Don't have an account? Register now (free) for customized features, flight alerts, and more!